sensor_id;sensor_type;location;lat;lon;timestamp;temperature;humidity
59977;DHT22;45837;51.076;3.578;2022-09-27T00:01:07;19.00;65.90
59977;DHT22;45837;51.076;3.578;2022-09-27T00:03:33;18.90;65.70
59977;DHT22;45837;51.076;3.578;2022-09-27T00:08:31;18.90;66.00
59977;DHT22;45837;51.076;3.578;2022-09-27T00:10:59;18.90;65.90
59977;DHT22;45837;51.076;3.578;2022-09-27T00:13:25;18.90;66.60
59977;DHT22;45837;51.076;3.578;2022-09-27T00:15:58;18.90;65.90
59977;DHT22;45837;51.076;3.578;2022-09-27T00:18:26;18.90;65.90
59977;DHT22;45837;51.076;3.578;2022-09-27T00:20:52;18.90;65.90
59977;DHT22;45837;51.076;3.578;2022-09-27T00:23:18;18.90;65.80
59977;DHT22;45837;51.076;3.578;2022-09-27T00:25:54;18.90;65.80
59977;DHT22;45837;51.076;3.578;2022-09-27T00:28:20;18.90;65.70
59977;DHT22;45837;51.076;3.578;2022-09-27T00:30:46;18.90;65.70
59977;DHT22;45837;51.076;3.578;2022-09-27T00:33:12;19.00;65.80
59977;DHT22;45837;51.076;3.578;2022-09-27T00:35:38;18.90;65.70
59977;DHT22;45837;51.076;3.578;2022-09-27T00:38:03;18.90;65.70
59977;DHT22;45837;51.076;3.578;2022-09-27T00:40:29;18.90;65.80
59977;DHT22;45837;51.076;3.578;2022-09-27T00:42:55;18.90;65.60
59977;DHT22;45837;51.076;3.578;2022-09-27T00:45:20;18.90;65.70
59977;DHT22;45837;51.076;3.578;2022-09-27T00:47:50;18.90;65.70
59977;DHT22;45837;51.076;3.578;2022-09-27T00:50:29;18.90;65.60
59977;DHT22;45837;51.076;3.578;2022-09-27T00:53:16;18.90;65.60
59977;DHT22;45837;51.076;3.578;2022-09-27T00:55:49;18.90;66.50
59977;DHT22;45837;51.076;3.578;2022-09-27T00:58:20;18.90;65.80
59977;DHT22;45837;51.076;3.578;2022-09-27T01:00:50;18.90;65.70
59977;DHT22;45837;51.076;3.578;2022-09-27T01:03:30;18.90;65.70
59977;DHT22;45837;51.076;3.578;2022-09-27T01:05:58;18.90;65.70
59977;DHT22;45837;51.076;3.578;2022-09-27T01:08:24;18.90;65.70
59977;DHT22;45837;51.076;3.578;2022-09-27T01:14:20;18.90;65.60
59977;DHT22;45837;51.076;3.578;2022-09-27T01:17:05;18.90;65.60
59977;DHT22;45837;51.076;3.578;2022-09-27T01:19:43;18.90;65.60
59977;DHT22;45837;51.076;3.578;2022-09-27T01:23:03;18.80;65.50
59977;DHT22;45837;51.076;3.578;2022-09-27T01:28:15;18.80;65.50
59977;DHT22;45837;51.076;3.578;2022-09-27T01:30:55;18.80;65.50
59977;DHT22;45837;51.076;3.578;2022-09-27T01:36:19;18.80;65.50
59977;DHT22;45837;51.076;3.578;2022-09-27T01:42:29;18.80;65.50
59977;DHT22;45837;51.076;3.578;2022-09-27T01:47:42;18.80;65.60
59977;DHT22;45837;51.076;3.578;2022-09-27T01:53:04;18.80;65.60
59977;DHT22;45837;51.076;3.578;2022-09-27T01:55:44;18.80;65.60
59977;DHT22;45837;51.076;3.578;2022-09-27T01:59:06;18.80;65.50
59977;DHT22;45837;51.076;3.578;2022-09-27T02:01:38;18.80;65.40
59977;DHT22;45837;51.076;3.578;2022-09-27T02:04:09;18.80;65.50
59977;DHT22;45837;51.076;3.578;2022-09-27T02:06:45;18.80;65.50
59977;DHT22;45837;51.076;3.578;2022-09-27T02:12:27;18.80;65.50
59977;DHT22;45837;51.076;3.578;2022-09-27T02:15:05;18.70;65.30
59977;DHT22;45837;51.076;3.578;2022-09-27T02:17:57;18.70;65.40
59977;DHT22;45837;51.076;3.578;2022-09-27T02:20:36;18.80;65.50
59977;DHT22;45837;51.076;3.578;2022-09-27T02:23:13;18.80;65.50
59977;DHT22;45837;51.076;3.578;2022-09-27T02:31:04;18.80;65.40
59977;DHT22;45837;51.076;3.578;2022-09-27T02:33:37;18.70;65.40
59977;DHT22;45837;51.076;3.578;2022-09-27T02:36:05;18.70;65.30
59977;DHT22;45837;51.076;3.578;2022-09-27T02:38:31;18.80;65.30
59977;DHT22;45837;51.076;3.578;2022-09-27T02:40:58;18.80;65.20
59977;DHT22;45837;51.076;3.578;2022-09-27T02:43:28;18.80;65.30
59977;DHT22;45837;51.076;3.578;2022-09-27T02:49:07;18.80;65.20
59977;DHT22;45837;51.076;3.578;2022-09-27T03:01:22;18.70;65.30
59977;DHT22;45837;51.076;3.578;2022-09-27T03:04:12;18.70;65.40
59977;DHT22;45837;51.076;3.578;2022-09-27T03:06:42;18.70;65.40
59977;DHT22;45837;51.076;3.578;2022-09-27T03:09:38;18.80;65.40
59977;DHT22;45837;51.076;3.578;2022-09-27T03:12:04;18.80;65.30
59977;DHT22;45837;51.076;3.578;2022-09-27T03:14:30;18.70;65.30
59977;DHT22;45837;51.076;3.578;2022-09-27T03:17:06;18.70;65.20
59977;DHT22;45837;51.076;3.578;2022-09-27T03:19:58;18.80;65.30
59977;DHT22;45837;51.076;3.578;2022-09-27T03:22:44;18.70;65.30
59977;DHT22;45837;51.076;3.578;2022-09-27T03:25:11;18.70;65.20
59977;DHT22;45837;51.076;3.578;2022-09-27T03:27:37;18.70;65.20
59977;DHT22;45837;51.076;3.578;2022-09-27T03:30:03;18.70;65.20
59977;DHT22;45837;51.076;3.578;2022-09-27T03:32:31;18.70;65.20
59977;DHT22;45837;51.076;3.578;2022-09-27T03:35:26;18.70;65.20
59977;DHT22;45837;51.076;3.578;2022-09-27T03:37:51;18.70;65.20
59977;DHT22;45837;51.076;3.578;2022-09-27T03:40:17;18.70;65.20
59977;DHT22;45837;51.076;3.578;2022-09-27T03:42:43;18.70;65.20
59977;DHT22;45837;51.076;3.578;2022-09-27T03:45:09;18.70;65.20
59977;DHT22;45837;51.076;3.578;2022-09-27T03:47:39;18.70;65.30
59977;DHT22;45837;51.076;3.578;2022-09-27T03:50:07;18.70;65.20
59977;DHT22;45837;51.076;3.578;2022-09-27T03:52:33;18.70;65.10
59977;DHT22;45837;51.076;3.578;2022-09-27T03:54:59;18.70;65.10
59977;DHT22;45837;51.076;3.578;2022-09-27T03:57:25;18.70;65.10
59977;DHT22;45837;51.076;3.578;2022-09-27T03:59:51;18.70;65.20
59977;DHT22;45837;51.076;3.578;2022-09-27T04:02:46;18.70;65.10
59977;DHT22;45837;51.076;3.578;2022-09-27T04:05:35;18.70;65.10
59977;DHT22;45837;51.076;3.578;2022-09-27T04:08:06;18.60;65.00
59977;DHT22;45837;51.076;3.578;2022-09-27T04:10:33;18.60;65.10
59977;DHT22;45837;51.076;3.578;2022-09-27T04:12:59;18.70;65.20
59977;DHT22;45837;51.076;3.578;2022-09-27T04:15:29;18.70;64.80
59977;DHT22;45837;51.076;3.578;2022-09-27T04:18:13;18.70;65.00
59977;DHT22;45837;51.076;3.578;2022-09-27T04:20:58;18.70;65.40
59977;DHT22;45837;51.076;3.578;2022-09-27T04:23:24;18.70;65.50
59977;DHT22;45837;51.076;3.578;2022-09-27T04:25:51;18.70;65.50
59977;DHT22;45837;51.076;3.578;2022-09-27T04:28:27;18.70;65.60
59977;DHT22;45837;51.076;3.578;2022-09-27T04:30:54;18.70;65.50
59977;DHT22;45837;51.076;3.578;2022-09-27T04:33:39;18.70;65.40
59977;DHT22;45837;51.076;3.578;2022-09-27T04:36:17;18.70;65.00
59977;DHT22;45837;51.076;3.578;2022-09-27T04:39:02;18.70;64.70
59977;DHT22;45837;51.076;3.578;2022-09-27T04:41:28;18.80;64.90
59977;DHT22;45837;51.076;3.578;2022-09-27T04:43:55;18.80;64.90
59977;DHT22;45837;51.076;3.578;2022-09-27T04:46:22;18.80;64.90
59977;DHT22;45837;51.076;3.578;2022-09-27T04:48:49;18.80;64.90
59977;DHT22;45837;51.076;3.578;2022-09-27T04:51:15;18.80;64.70
59977;DHT22;45837;51.076;3.578;2022-09-27T04:53:46;18.80;64.60
59977;DHT22;45837;51.076;3.578;2022-09-27T04:56:13;18.80;64.80
59977;DHT22;45837;51.076;3.578;2022-09-27T04:58:40;18.80;65.00
59977;DHT22;45837;51.076;3.578;2022-09-27T05:01:06;18.80;65.00
59977;DHT22;45837;51.076;3.578;2022-09-27T05:03:56;18.80;65.00
59977;DHT22;45837;51.076;3.578;2022-09-27T05:06:23;18.80;65.00
59977;DHT22;45837;51.076;3.578;2022-09-27T05:08:49;18.90;65.00
59977;DHT22;45837;51.076;3.578;2022-09-27T05:11:17;18.90;64.80
59977;DHT22;45837;51.076;3.578;2022-09-27T05:14:06;18.90;64.80
59977;DHT22;45837;51.076;3.578;2022-09-27T05:16:41;18.90;64.90
59977;DHT22;45837;51.076;3.578;2022-09-27T05:19:25;18.90;64.80
59977;DHT22;45837;51.076;3.578;2022-09-27T05:21:53;18.90;64.70
59977;DHT22;45837;51.076;3.578;2022-09-27T05:24:19;18.90;64.80
59977;DHT22;45837;51.076;3.578;2022-09-27T05:26:46;18.80;64.80
59977;DHT22;45837;51.076;3.578;2022-09-27T05:29:12;18.80;64.90
59977;DHT22;45837;51.076;3.578;2022-09-27T05:31:39;18.80;64.90
59977;DHT22;45837;51.076;3.578;2022-09-27T05:34:05;18.80;64.90
59977;DHT22;45837;51.076;3.578;2022-09-27T05:36:39;18.80;64.90
59977;DHT22;45837;51.076;3.578;2022-09-27T05:39:05;18.70;64.90
59977;DHT22;45837;51.076;3.578;2022-09-27T05:41:31;18.80;64.80
59977;DHT22;45837;51.076;3.578;2022-09-27T05:43:58;18.70;64.80
59977;DHT22;45837;51.076;3.578;2022-09-27T05:46:24;18.70;64.90
59977;DHT22;45837;51.076;3.578;2022-09-27T05:48:49;18.70;64.90
59977;DHT22;45837;51.076;3.578;2022-09-27T05:51:15;18.70;64.70
59977;DHT22;45837;51.076;3.578;2022-09-27T05:53:41;18.70;64.70
59977;DHT22;45837;51.076;3.578;2022-09-27T05:56:15;18.70;64.80
59977;DHT22;45837;51.076;3.578;2022-09-27T05:59:11;18.70;64.80
59977;DHT22;45837;51.076;3.578;2022-09-27T06:01:57;18.70;64.90
59977;DHT22;45837;51.076;3.578;2022-09-27T06:04:57;18.70;64.80
59977;DHT22;45837;51.076;3.578;2022-09-27T06:08:04;18.60;64.80
59977;DHT22;45837;51.076;3.578;2022-09-27T06:10:36;18.60;64.80
59977;DHT22;45837;51.076;3.578;2022-09-27T06:13:07;18.60;64.70
59977;DHT22;45837;51.076;3.578;2022-09-27T06:15:37;18.60;64.80
59977;DHT22;45837;51.076;3.578;2022-09-27T06:18:09;18.60;64.60
59977;DHT22;45837;51.076;3.578;2022-09-27T06:20:37;18.60;64.70
59977;DHT22;45837;51.076;3.578;2022-09-27T06:23:09;18.60;64.80
59977;DHT22;45837;51.076;3.578;2022-09-27T06:25:36;18.60;64.70
59977;DHT22;45837;51.076;3.578;2022-09-27T06:28:12;18.60;64.70
59977;DHT22;45837;51.076;3.578;2022-09-27T06:30:43;18.60;64.70
59977;DHT22;45837;51.076;3.578;2022-09-27T06:33:19;18.60;64.70
59977;DHT22;45837;51.076;3.578;2022-09-27T06:35:49;18.60;64.50
59977;DHT22;45837;51.076;3.578;2022-09-27T06:38:17;18.60;64.70
59977;DHT22;45837;51.076;3.578;2022-09-27T06:40:52;18.60;64.50
59977;DHT22;45837;51.076;3.578;2022-09-27T06:43:38;18.60;64.50
59977;DHT22;45837;51.076;3.578;2022-09-27T06:46:17;18.60;64.50
59977;DHT22;45837;51.076;3.578;2022-09-27T06:48:56;18.60;64.50
59977;DHT22;45837;51.076;3.578;2022-09-27T06:51:23;18.50;64.50
59977;DHT22;45837;51.076;3.578;2022-09-27T06:53:49;18.60;64.60
59977;DHT22;45837;51.076;3.578;2022-09-27T06:56:15;18.50;64.40
59977;DHT22;45837;51.076;3.578;2022-09-27T06:58:50;18.60;64.60
59977;DHT22;45837;51.076;3.578;2022-09-27T07:01:41;18.60;64.50
59977;DHT22;45837;51.076;3.578;2022-09-27T07:04:26;18.50;64.40
59977;DHT22;45837;51.076;3.578;2022-09-27T07:07:03;18.50;64.20
59977;DHT22;45837;51.076;3.578;2022-09-27T07:09:36;18.50;64.40
59977;DHT22;45837;51.076;3.578;2022-09-27T07:12:05;18.50;64.40
59977;DHT22;45837;51.076;3.578;2022-09-27T07:14:31;18.50;64.40
59977;DHT22;45837;51.076;3.578;2022-09-27T07:17:00;18.50;64.40
59977;DHT22;45837;51.076;3.578;2022-09-27T07:19:30;18.50;64.30
59977;DHT22;45837;51.076;3.578;2022-09-27T07:21:56;18.50;64.40
59977;DHT22;45837;51.076;3.578;2022-09-27T07:24:22;18.50;64.30
59977;DHT22;45837;51.076;3.578;2022-09-27T07:26:49;18.50;64.20
59977;DHT22;45837;51.076;3.578;2022-09-27T07:29:17;18.50;64.30
59977;DHT22;45837;51.076;3.578;2022-09-27T07:31:43;18.50;64.20
59977;DHT22;45837;51.076;3.578;2022-09-27T07:34:09;18.50;64.30
59977;DHT22;45837;51.076;3.578;2022-09-27T07:36:35;18.50;64.20
59977;DHT22;45837;51.076;3.578;2022-09-27T07:39:01;18.50;64.40
59977;DHT22;45837;51.076;3.578;2022-09-27T07:41:30;18.50;64.10
59977;DHT22;45837;51.076;3.578;2022-09-27T07:43:56;18.50;64.10
59977;DHT22;45837;51.076;3.578;2022-09-27T07:46:24;18.50;64.10
59977;DHT22;45837;51.076;3.578;2022-09-27T07:48:55;18.50;64.10
59977;DHT22;45837;51.076;3.578;2022-09-27T07:51:40;18.50;64.00
59977;DHT22;45837;51.076;3.578;2022-09-27T07:54:13;18.50;64.00
59977;DHT22;45837;51.076;3.578;2022-09-27T07:56:51;18.50;63.90
59977;DHT22;45837;51.076;3.578;2022-09-27T07:59:20;18.50;64.00
59977;DHT22;45837;51.076;3.578;2022-09-27T08:01:46;18.50;64.00
59977;DHT22;45837;51.076;3.578;2022-09-27T08:04:12;18.50;63.90
59977;DHT22;45837;51.076;3.578;2022-09-27T08:06:37;18.50;64.00
59977;DHT22;45837;51.076;3.578;2022-09-27T08:09:07;18.50;64.00
59977;DHT22;45837;51.076;3.578;2022-09-27T08:11:35;18.50;64.00
59977;DHT22;45837;51.076;3.578;2022-09-27T08:14:02;18.50;64.00
59977;DHT22;45837;51.076;3.578;2022-09-27T08:16:34;18.50;64.00
59977;DHT22;45837;51.076;3.578;2022-09-27T08:19:18;18.50;64.00
59977;DHT22;45837;51.076;3.578;2022-09-27T08:22:11;18.50;64.10
59977;DHT22;45837;51.076;3.578;2022-09-27T08:25:02;18.50;63.90
59977;DHT22;45837;51.076;3.578;2022-09-27T08:27:37;18.50;64.00
59977;DHT22;45837;51.076;3.578;2022-09-27T08:30:16;18.50;63.90
59977;DHT22;45837;51.076;3.578;2022-09-27T08:32:43;18.50;63.80
59977;DHT22;45837;51.076;3.578;2022-09-27T08:35:09;18.50;63.80
59977;DHT22;45837;51.076;3.578;2022-09-27T08:37:35;18.50;63.80
59977;DHT22;45837;51.076;3.578;2022-09-27T08:40:01;18.50;63.60
59977;DHT22;45837;51.076;3.578;2022-09-27T08:42:40;18.60;63.50
59977;DHT22;45837;51.076;3.578;2022-09-27T08:45:49;18.60;64.20
59977;DHT22;45837;51.076;3.578;2022-09-27T08:48:19;18.60;63.40
59977;DHT22;45837;51.076;3.578;2022-09-27T08:50:47;18.60;63.40
59977;DHT22;45837;51.076;3.578;2022-09-27T08:53:29;18.60;63.40
59977;DHT22;45837;51.076;3.578;2022-09-27T08:55:58;18.70;63.30
59977;DHT22;45837;51.076;3.578;2022-09-27T09:01:18;18.70;63.30
59977;DHT22;45837;51.076;3.578;2022-09-27T09:03:54;18.70;63.10
59977;DHT22;45837;51.076;3.578;2022-09-27T09:06:23;18.80;62.90
59977;DHT22;45837;51.076;3.578;2022-09-27T09:23:50;19.10;62.70
59977;DHT22;45837;51.076;3.578;2022-09-27T09:27:17;19.20;62.70
59977;DHT22;45837;51.076;3.578;2022-09-27T09:38:10;19.30;62.70
59977;DHT22;45837;51.076;3.578;2022-09-27T09:40:41;19.30;62.60
59977;DHT22;45837;51.076;3.578;2022-09-27T09:43:24;19.30;62.50
59977;DHT22;45837;51.076;3.578;2022-09-27T09:46:01;19.30;62.50
59977;DHT22;45837;51.076;3.578;2022-09-27T09:51:00;19.30;62.70
59977;DHT22;45837;51.076;3.578;2022-09-27T09:53:53;19.30;62.50
59977;DHT22;45837;51.076;3.578;2022-09-27T09:56:29;19.30;62.50
59977;DHT22;45837;51.076;3.578;2022-09-27T09:59:02;19.30;62.50
59977;DHT22;45837;51.076;3.578;2022-09-27T10:01:44;19.30;62.30
59977;DHT22;45837;51.076;3.578;2022-09-27T10:04:18;19.30;62.30
59977;DHT22;45837;51.076;3.578;2022-09-27T10:06:46;19.30;62.30
59977;DHT22;45837;51.076;3.578;2022-09-27T10:09:17;19.30;62.30
59977;DHT22;45837;51.076;3.578;2022-09-27T10:12:09;19.20;62.30
59977;DHT22;45837;51.076;3.578;2022-09-27T10:14:34;19.20;62.20
59977;DHT22;45837;51.076;3.578;2022-09-27T10:17:08;19.20;62.30
59977;DHT22;45837;51.076;3.578;2022-09-27T10:19:35;19.20;62.30
59977;DHT22;45837;51.076;3.578;2022-09-27T10:22:28;19.20;62.30
59977;DHT22;45837;51.076;3.578;2022-09-27T10:25:05;19.20;62.40
59977;DHT22;45837;51.076;3.578;2022-09-27T10:27:58;19.20;62.40
59977;DHT22;45837;51.076;3.578;2022-09-27T10:30:32;19.20;62.50
59977;DHT22;45837;51.076;3.578;2022-09-27T10:33:13;19.20;62.50
59977;DHT22;45837;51.076;3.578;2022-09-27T10:35:45;19.20;62.60
59977;DHT22;45837;51.076;3.578;2022-09-27T10:38:31;19.20;62.50
59977;DHT22;45837;51.076;3.578;2022-09-27T10:41:30;19.20;62.60
59977;DHT22;45837;51.076;3.578;2022-09-27T10:46:48;19.30;62.80
59977;DHT22;45837;51.076;3.578;2022-09-27T10:49:36;19.30;62.70
59977;DHT22;45837;51.076;3.578;2022-09-27T10:52:14;19.30;62.70
59977;DHT22;45837;51.076;3.578;2022-09-27T10:54:42;19.30;62.70
59977;DHT22;45837;51.076;3.578;2022-09-27T10:57:19;19.30;62.70
59977;DHT22;45837;51.076;3.578;2022-09-27T10:59:54;19.30;62.70
59977;DHT22;45837;51.076;3.578;2022-09-27T11:02:26;19.30;62.60
59977;DHT22;45837;51.076;3.578;2022-09-27T11:05:30;19.40;62.70
59977;DHT22;45837;51.076;3.578;2022-09-27T11:11:19;19.40;62.70
59977;DHT22;45837;51.076;3.578;2022-09-27T11:14:15;19.40;62.70
59977;DHT22;45837;51.076;3.578;2022-09-27T11:20:04;19.40;62.70
59977;DHT22;45837;51.076;3.578;2022-09-27T11:28:17;19.40;62.60
59977;DHT22;45837;51.076;3.578;2022-09-27T11:33:41;19.40;62.60
59977;DHT22;45837;51.076;3.578;2022-09-27T11:36:40;19.40;62.60
59977;DHT22;45837;51.076;3.578;2022-09-27T11:42:31;19.40;62.60
59977;DHT22;45837;51.076;3.578;2022-09-27T11:48:05;19.40;62.80
59977;DHT22;45837;51.076;3.578;2022-09-27T11:56:47;19.40;63.00
59977;DHT22;45837;51.076;3.578;2022-09-27T12:02:44;19.40;62.80
59977;DHT22;45837;51.076;3.578;2022-09-27T12:10:57;19.30;63.00
59977;DHT22;45837;51.076;3.578;2022-09-27T12:13:37;19.30;63.00
59977;DHT22;45837;51.076;3.578;2022-09-27T12:16:05;19.30;63.10
59977;DHT22;45837;51.076;3.578;2022-09-27T12:18:36;19.30;63.10
59977;DHT22;45837;51.076;3.578;2022-09-27T12:21:19;19.30;63.30
59977;DHT22;45837;51.076;3.578;2022-09-27T12:23:54;19.20;63.10
59977;DHT22;45837;51.076;3.578;2022-09-27T12:26:39;19.20;63.20
59977;DHT22;45837;51.076;3.578;2022-09-27T12:37:37;19.20;63.30
59977;DHT22;45837;51.076;3.578;2022-09-27T12:40:05;19.20;63.30
59977;DHT22;45837;51.076;3.578;2022-09-27T12:42:46;19.20;63.30
59977;DHT22;45837;51.076;3.578;2022-09-27T12:48:19;19.20;63.10
59977;DHT22;45837;51.076;3.578;2022-09-27T13:01:25;19.20;63.10
59977;DHT22;45837;51.076;3.578;2022-09-27T13:06:54;19.20;63.00
59977;DHT22;45837;51.076;3.578;2022-09-27T13:09:53;19.20;63.00
59977;DHT22;45837;51.076;3.578;2022-09-27T13:12:25;19.20;63.00
59977;DHT22;45837;51.076;3.578;2022-09-27T13:14:59;19.10;62.90
59977;DHT22;45837;51.076;3.578;2022-09-27T13:17:48;19.10;63.00
59977;DHT22;45837;51.076;3.578;2022-09-27T13:23:03;19.10;62.90
59977;DHT22;45837;51.076;3.578;2022-09-27T13:34:45;19.20;62.90
59977;DHT22;45837;51.076;3.578;2022-09-27T13:37:44;19.10;62.80
59977;DHT22;45837;51.076;3.578;2022-09-27T13:40:20;19.20;62.90
59977;DHT22;45837;51.076;3.578;2022-09-27T13:45:59;19.10;62.90
59977;DHT22;45837;51.076;3.578;2022-09-27T13:48:45;19.10;62.90
59977;DHT22;45837;51.076;3.578;2022-09-27T13:54:03;19.10;63.00
59977;DHT22;45837;51.076;3.578;2022-09-27T13:59:28;19.10;63.10
59977;DHT22;45837;51.076;3.578;2022-09-27T14:02:28;19.10;63.10
59977;DHT22;45837;51.076;3.578;2022-09-27T14:04:58;19.10;63.10
59977;DHT22;45837;51.076;3.578;2022-09-27T14:07:34;19.00;63.10
59977;DHT22;45837;51.076;3.578;2022-09-27T14:10:02;19.00;63.00
59977;DHT22;45837;51.076;3.578;2022-09-27T14:12:37;19.00;63.10
59977;DHT22;45837;51.076;3.578;2022-09-27T14:15:08;19.10;63.10
59977;DHT22;45837;51.076;3.578;2022-09-27T14:17:40;19.00;63.00
59977;DHT22;45837;51.076;3.578;2022-09-27T14:20:39;19.00;63.00
59977;DHT22;45837;51.076;3.578;2022-09-27T14:23:23;19.00;62.90
59977;DHT22;45837;51.076;3.578;2022-09-27T14:25:53;19.00;62.90
59977;DHT22;45837;51.076;3.578;2022-09-27T14:28:27;19.00;62.90
59977;DHT22;45837;51.076;3.578;2022-09-27T14:34:07;19.00;62.90
59977;DHT22;45837;51.076;3.578;2022-09-27T14:36:43;19.00;62.90
59977;DHT22;45837;51.076;3.578;2022-09-27T14:39:33;19.00;62.90
59977;DHT22;45837;51.076;3.578;2022-09-27T14:42:20;19.00;62.80
59977;DHT22;45837;51.076;3.578;2022-09-27T14:44:47;19.00;62.80
59977;DHT22;45837;51.076;3.578;2022-09-27T14:47:21;19.10;63.00
59977;DHT22;45837;51.076;3.578;2022-09-27T14:49:49;19.00;62.80
59977;DHT22;45837;51.076;3.578;2022-09-27T14:52:19;19.00;63.00
59977;DHT22;45837;51.076;3.578;2022-09-27T14:54:55;19.00;62.90
59977;DHT22;45837;51.076;3.578;2022-09-27T14:57:22;19.00;63.00
59977;DHT22;45837;51.076;3.578;2022-09-27T14:59:48;19.00;63.00
59977;DHT22;45837;51.076;3.578;2022-09-27T15:02:19;19.00;63.10
59977;DHT22;45837;51.076;3.578;2022-09-27T15:04:47;19.00;63.00
59977;DHT22;45837;51.076;3.578;2022-09-27T15:07:15;19.00;63.10
59977;DHT22;45837;51.076;3.578;2022-09-27T15:09:42;19.00;63.00
59977;DHT22;45837;51.076;3.578;2022-09-27T15:12:12;19.00;63.00
59977;DHT22;45837;51.076;3.578;2022-09-27T15:14:40;19.00;62.70
59977;DHT22;45837;51.076;3.578;2022-09-27T15:17:27;19.00;62.50
59977;DHT22;45837;51.076;3.578;2022-09-27T15:20:21;19.00;62.50
59977;DHT22;45837;51.076;3.578;2022-09-27T15:22:49;19.00;62.40
59977;DHT22;45837;51.076;3.578;2022-09-27T15:27:57;19.00;62.50
59977;DHT22;45837;51.076;3.578;2022-09-27T15:30:26;19.00;62.60
59977;DHT22;45837;51.076;3.578;2022-09-27T15:32:54;18.90;62.50
59977;DHT22;45837;51.076;3.578;2022-09-27T15:35:26;19.00;62.60
59977;DHT22;45837;51.076;3.578;2022-09-27T15:38:21;18.90;62.60
59977;DHT22;45837;51.076;3.578;2022-09-27T15:45:55;19.00;63.20
59977;DHT22;45837;51.076;3.578;2022-09-27T15:48:22;19.00;63.30
59977;DHT22;45837;51.076;3.578;2022-09-27T15:50:49;19.00;63.40
59977;DHT22;45837;51.076;3.578;2022-09-27T15:53:47;19.00;64.20
59977;DHT22;45837;51.076;3.578;2022-09-27T15:56:14;19.00;63.50
59977;DHT22;45837;51.076;3.578;2022-09-27T15:58:40;19.00;63.60
59977;DHT22;45837;51.076;3.578;2022-09-27T16:01:13;19.00;63.80
59977;DHT22;45837;51.076;3.578;2022-09-27T16:03:40;19.00;63.70
59977;DHT22;45837;51.076;3.578;2022-09-27T16:06:05;19.00;63.40
59977;DHT22;45837;51.076;3.578;2022-09-27T16:08:31;19.00;63.60
59977;DHT22;45837;51.076;3.578;2022-09-27T16:10:58;19.00;63.60
59977;DHT22;45837;51.076;3.578;2022-09-27T16:13:25;19.00;63.60
59977;DHT22;45837;51.076;3.578;2022-09-27T16:15:51;19.00;63.60
59977;DHT22;45837;51.076;3.578;2022-09-27T16:18:17;19.00;63.60
59977;DHT22;45837;51.076;3.578;2022-09-27T16:20:43;19.00;63.70
59977;DHT22;45837;51.076;3.578;2022-09-27T16:23:09;19.00;63.10
59977;DHT22;45837;51.076;3.578;2022-09-27T16:25:35;18.90;63.00
59977;DHT22;45837;51.076;3.578;2022-09-27T16:28:02;18.90;63.20
59977;DHT22;45837;51.076;3.578;2022-09-27T16:30:29;18.80;63.10
59977;DHT22;45837;51.076;3.578;2022-09-27T16:32:56;18.80;63.20
59977;DHT22;45837;51.076;3.578;2022-09-27T16:35:23;18.80;63.20
59977;DHT22;45837;51.076;3.578;2022-09-27T16:37:50;18.80;63.30
59977;DHT22;45837;51.076;3.578;2022-09-27T16:40:16;18.90;64.00
59977;DHT22;45837;51.076;3.578;2022-09-27T16:42:48;18.90;63.90
59977;DHT22;45837;51.076;3.578;2022-09-27T16:45:14;18.90;64.00
59977;DHT22;45837;51.076;3.578;2022-09-27T16:47:43;18.90;64.00
59977;DHT22;45837;51.076;3.578;2022-09-27T16:50:11;18.90;64.10
59977;DHT22;45837;51.076;3.578;2022-09-27T16:52:56;18.90;64.20
59977;DHT22;45837;51.076;3.578;2022-09-27T16:55:24;18.90;64.10
59977;DHT22;45837;51.076;3.578;2022-09-27T16:57:50;18.90;64.10
59977;DHT22;45837;51.076;3.578;2022-09-27T17:00:17;19.00;63.90
59977;DHT22;45837;51.076;3.578;2022-09-27T17:02:45;19.00;63.90
59977;DHT22;45837;51.076;3.578;2022-09-27T17:05:13;19.00;63.90
59977;DHT22;45837;51.076;3.578;2022-09-27T17:07:39;19.00;63.80
59977;DHT22;45837;51.076;3.578;2022-09-27T17:10:06;19.00;63.70
59977;DHT22;45837;51.076;3.578;2022-09-27T17:12:32;19.00;63.80
59977;DHT22;45837;51.076;3.578;2022-09-27T17:14:58;18.90;63.80
59977;DHT22;45837;51.076;3.578;2022-09-27T17:17:24;18.90;63.80
59977;DHT22;45837;51.076;3.578;2022-09-27T17:19:50;19.00;63.80
59977;DHT22;45837;51.076;3.578;2022-09-27T17:22:16;18.90;63.90
59977;DHT22;45837;51.076;3.578;2022-09-27T17:24:42;18.90;63.80
59977;DHT22;45837;51.076;3.578;2022-09-27T17:27:08;18.90;63.90
59977;DHT22;45837;51.076;3.578;2022-09-27T17:29:35;18.90;64.00
59977;DHT22;45837;51.076;3.578;2022-09-27T17:32:03;18.90;64.00
59977;DHT22;45837;51.076;3.578;2022-09-27T17:34:34;18.90;63.90
59977;DHT22;45837;51.076;3.578;2022-09-27T17:36:59;18.90;63.80
59977;DHT22;45837;51.076;3.578;2022-09-27T17:39:25;18.90;64.00
59977;DHT22;45837;51.076;3.578;2022-09-27T17:41:51;18.90;64.00
59977;DHT22;45837;51.076;3.578;2022-09-27T17:44:17;18.90;64.00
59977;DHT22;45837;51.076;3.578;2022-09-27T17:46:44;18.90;64.00
59977;DHT22;45837;51.076;3.578;2022-09-27T17:49:11;18.90;64.00
59977;DHT22;45837;51.076;3.578;2022-09-27T17:51:55;18.90;64.10
59977;DHT22;45837;51.076;3.578;2022-09-27T17:54:23;18.90;64.10
59977;DHT22;45837;51.076;3.578;2022-09-27T17:56:49;18.90;64.20
59977;DHT22;45837;51.076;3.578;2022-09-27T17:59:16;18.90;64.10
59977;DHT22;45837;51.076;3.578;2022-09-27T18:01:43;18.90;64.10
59977;DHT22;45837;51.076;3.578;2022-09-27T18:04:11;18.90;64.20
59977;DHT22;45837;51.076;3.578;2022-09-27T18:06:43;18.90;64.10
59977;DHT22;45837;51.076;3.578;2022-09-27T18:09:12;18.90;64.10
59977;DHT22;45837;51.076;3.578;2022-09-27T18:11:38;18.90;64.10
59977;DHT22;45837;51.076;3.578;2022-09-27T18:14:05;18.90;64.00
59977;DHT22;45837;51.076;3.578;2022-09-27T18:16:35;18.90;64.00
59977;DHT22;45837;51.076;3.578;2022-09-27T18:19:05;18.90;64.30
59977;DHT22;45837;51.076;3.578;2022-09-27T18:21:30;18.90;64.00
59977;DHT22;45837;51.076;3.578;2022-09-27T18:23:58;18.90;63.80
59977;DHT22;45837;51.076;3.578;2022-09-27T18:26:26;18.90;63.80
59977;DHT22;45837;51.076;3.578;2022-09-27T18:29:05;18.90;63.70
59977;DHT22;45837;51.076;3.578;2022-09-27T18:31:31;18.80;64.40
59977;DHT22;45837;51.076;3.578;2022-09-27T18:33:57;18.90;63.80
59977;DHT22;45837;51.076;3.578;2022-09-27T18:36:25;18.90;64.10
59977;DHT22;45837;51.076;3.578;2022-09-27T18:41:19;18.90;65.60
59977;DHT22;45837;51.076;3.578;2022-09-27T18:43:46;18.90;65.30
59977;DHT22;45837;51.076;3.578;2022-09-27T18:46:15;18.90;65.40
59977;DHT22;45837;51.076;3.578;2022-09-27T18:48:41;18.90;65.50
59977;DHT22;45837;51.076;3.578;2022-09-27T18:51:11;18.90;65.50
59977;DHT22;45837;51.076;3.578;2022-09-27T18:53:37;18.90;65.50
59977;DHT22;45837;51.076;3.578;2022-09-27T18:56:10;18.90;65.70